Time;durP1;ratioP1;P1;durP2;ratioP2;P2;SDS_P1;SDS_P2;PMS_P1;PMS_P2;Temp;Humidity;BMP_temperature;BMP_pressure;BME280_temperature;BME280_humidity;BME280_pressure;Samples;Min_cycle;Max_cycle;Signal;HPM_P1;HPM_P2
2023/11/25 00:00:40;;;;;;;3.00;1.80;;;;;;;1.68;100.00;98135.70;88397;284;136993;-71
2023/11/25 00:02:43;;;;;;;4.70;2.70;;;;;;;1.65;100.00;98139.38;88436;285;25328;-71
2023/11/25 00:04:45;;;;;;;6.10;3.30;;;;;;;1.61;100.00;98137.61;88458;280;135660;-70
2023/11/25 00:06:48;;;;;;;4.70;2.40;;;;;;;1.58;100.00;98133.77;88495;276;22529;-70
2023/11/25 00:08:50;;;;;;;6.60;2.50;;;;;;;1.55;100.00;98133.54;88312;276;136922;-71
2023/11/25 00:10:53;;;;;;;7.00;2.40;;;;;;;1.58;100.00;98135.83;88456;284;22534;-71
2023/11/25 00:12:56;;;;;;;4.50;2.70;;;;;;;1.64;100.00;98128.79;88355;280;136028;-69
2023/11/25 00:15:06;;;;;;;6.60;2.60;;;;;;;1.69;100.00;98132.84;88532;278;22543;-74
2023/11/25 00:17:10;;;;;;;4.00;2.70;;;;;;;1.66;100.00;98139.59;88450;284;135523;-64
2023/11/25 00:19:14;;;;;;;4.00;2.20;;;;;;;1.61;100.00;98139.86;88476;276;22716;-71
2023/11/25 00:21:18;;;;;;;;;;;;;;;1.57;100.00;98132.66;88392;282;135073;-70
2023/11/25 00:23:21;;;;;;;4.50;2.80;;;;;;;1.53;100.00;98132.42;88488;285;23901;-70
2023/11/25 00:25:24;;;;;;;3.70;3.00;;;;;;;1.49;100.00;98135.55;88332;284;135618;-70
2023/11/25 00:27:27;;;;;;;4.70;3.00;;;;;;;1.45;100.00;98136.13;88679;282;25146;-67
2023/11/25 00:29:30;;;;;;;11.00;3.60;;;;;;;1.46;100.00;98139.52;88177;277;136507;-71
2023/11/25 00:31:35;;;;;;;7.00;2.30;;;;;;;1.48;100.00;98142.14;88420;282;24055;-68
2023/11/25 00:33:37;;;;;;;4.70;2.50;;;;;;;1.50;100.00;98139.85;88306;283;136320;-72
2023/11/25 00:35:40;;;;;;;8.30;4.10;;;;;;;1.49;100.00;98140.77;88444;283;24086;-70
2023/11/25 00:37:42;;;;;;;7.70;3.50;;;;;;;1.46;100.00;98144.48;88187;280;136145;-69
2023/11/25 00:39:45;;;;;;;7.30;3.40;;;;;;;1.40;100.00;98143.45;88462;284;24018;-72
2023/11/25 00:41:48;;;;;;;6.50;3.20;;;;;;;1.36;100.00;98141.66;88318;284;137181;-69
2023/11/25 00:43:51;;;;;;;5.70;3.20;;;;;;;1.33;100.00;98142.36;88442;283;22583;-70
2023/11/25 00:45:53;;;;;;;7.20;4.00;;;;;;;1.31;100.00;98140.19;88402;283;135690;-69
2023/11/25 00:47:58;;;;;;;5.70;3.70;;;;;;;1.27;100.00;98138.00;88424;283;24058;-67
2023/11/25 00:50:01;;;;;;;6.10;3.20;;;;;;;1.30;100.00;98140.41;88348;284;136252;-69
2023/11/25 00:52:03;;;;;;;6.40;2.80;;;;;;;1.38;100.00;98142.92;88221;286;136814;-71
2023/11/25 00:54:06;;;;;;;8.40;3.10;;;;;;;1.44;100.00;98142.48;88456;276;22551;-69
2023/11/25 00:56:09;;;;;;;4.90;2.50;;;;;;;1.47;100.00;98146.15;88237;278;136367;-72
2023/11/25 00:58:12;;;;;;;4.20;2.80;;;;;;;1.45;100.00;98146.48;88461;282;22527;-69
2023/11/25 01:00:22;;;;;;;5.50;3.60;;;;;;;1.40;100.00;98148.13;88174;278;135957;-69
2023/11/25 01:02:24;;;;;;;5.80;3.50;;;;;;;1.34;100.00;98142.83;88272;286;22556;-69
2023/11/25 01:04:26;;;;;;;7.20;3.80;;;;;;;1.31;100.00;98147.34;88300;278;135792;-71
2023/11/25 01:06:28;;;;;;;6.70;3.20;;;;;;;1.28;100.00;98147.13;88401;277;25147;-71
2023/11/25 01:08:33;;;;;;;7.40;3.30;;;;;;;1.23;100.00;98147.35;88213;283;135614;-71
2023/11/25 01:10:35;;;;;;;7.90;3.30;;;;;;;1.22;100.00;98146.21;88424;278;22699;-69
2023/11/25 01:12:38;;;;;;;2.90;2.10;;;;;;;1.26;100.00;98151.20;88304;280;136458;-71
2023/11/25 01:14:40;;;;;;;4.80;3.40;;;;;;;1.27;100.00;98150.89;88516;281;22649;-72
2023/11/25 01:16:45;;;;;;;4.60;2.20;;;;;;;1.25;100.00;98150.52;88386;283;136058;-70
2023/11/25 01:18:47;;;;;;;4.60;3.10;;;;;;;1.19;100.00;98149.41;88439;285;24179;-68
2023/11/25 01:20:49;;;;;;;4.80;2.80;;;;;;;1.12;100.00;98157.61;88324;283;136250;-69
2023/11/25 01:22:51;;;;;;;5.00;3.00;;;;;;;1.07;100.00;98162.43;88356;281;22553;-70
2023/11/25 01:24:54;;;;;;;6.60;4.40;;;;;;;1.02;100.00;98160.19;88238;278;135827;-69
2023/11/25 01:26:56;;;;;;;5.00;3.30;;;;;;;0.96;100.00;98158.05;88251;286;25144;-71
2023/11/25 01:28:58;;;;;;;6.60;3.20;;;;;;;0.91;100.00;98155.15;88226;277;136898;-73
2023/11/25 01:31:01;;;;;;;5.80;3.10;;;;;;;0.93;100.00;98152.48;88378;285;22609;-69
2023/11/25 01:33:06;;;;;;;2.20;1.90;;;;;;;0.99;100.00;98146.66;88279;285;136711;-71
2023/11/25 01:35:08;;;;;;;5.20;2.30;;;;;;;1.02;100.00;98143.56;88413;285;24176;-69
2023/11/25 01:37:15;;;;;;;6.00;3.40;;;;;;;1.04;100.00;98138.59;88247;276;136254;-69
2023/11/25 01:39:17;;;;;;;4.30;2.10;;;;;;;1.03;100.00;98134.73;88409;277;23619;-68
2023/11/25 01:41:20;;;;;;;2.90;2.60;;;;;;;0.98;100.00;98140.13;88419;282;137068;-69
2023/11/25 01:43:25;;;;;;;4.00;2.80;;;;;;;0.96;100.00;98143.36;88569;279;22543;-70
2023/11/25 01:45:27;;;;;;;2.90;2.60;;;;;;;0.97;100.00;98145.36;88374;282;137456;-69
2023/11/25 01:47:31;;;;;;;3.30;2.80;;;;;;;0.99;100.00;98150.71;88399;282;22507;-70
2023/11/25 01:49:33;;;;;;;5.40;3.30;;;;;;;1.02;100.00;98158.91;88349;276;137127;-70
2023/11/25 01:51:37;;;;;;;5.90;3.00;;;;;;;1.12;100.00;98164.96;88395;276;22542;-68
2023/11/25 01:53:39;;;;;;;5.90;4.00;;;;;;;1.19;100.00;98169.35;88258;279;136413;-70
2023/11/25 01:55:42;;;;;;;4.30;2.70;;;;;;;1.26;100.00;98179.34;88433;276;25218;-70
2023/11/25 01:57:44;;;;;;;4.20;2.50;;;;;;;1.33;100.00;98188.52;88460;282;136291;-71
2023/11/25 01:59:48;;;;;;;4.80;2.80;;;;;;;1.36;100.00;98189.60;88404;281;22555;-70
2023/11/25 02:01:53;;;;;;;4.10;2.30;;;;;;;1.35;100.00;98193.39;88467;281;135982;-72
2023/11/25 02:03:56;;;;;;;7.90;3.50;;;;;;;1.34;100.00;98190.70;88694;274;22682;-68
2023/11/25 02:05:58;;;;;;;8.80;3.70;;;;;;;1.33;100.00;98191.85;88488;281;136585;-71
2023/11/25 02:08:00;;;;;;;5.40;3.70;;;;;;;1.35;100.00;98187.77;88340;284;25083;-69
2023/11/25 02:10:04;;;;;;;6.40;3.10;;;;;;;1.26;100.00;98167.64;88608;281;24020;-69
2023/11/25 02:12:07;;;;;;;3.60;2.80;;;;;;;1.45;100.00;98179.77;88502;273;136911;-68
2023/11/25 02:14:09;;;;;;;3.80;2.80;;;;;;;1.55;100.00;98189.05;88550;282;22545;-69
2023/11/25 02:16:15;;;;;;;5.50;2.10;;;;;;;1.62;100.00;98201.70;88494;281;136404;-69
2023/11/25 02:18:17;;;;;;;3.90;2.50;;;;;;;1.63;100.00;98205.67;88429;283;24063;-68
2023/11/25 02:20:36;;;;;;;3.80;2.50;;;;;;;1.59;100.00;98213.61;88253;280;136264;-68
2023/11/25 02:22:38;;;;;;;6.70;2.70;;;;;;;1.55;100.00;98221.10;88498;282;22538;-69
2023/11/25 02:24:42;;;;;;;5.90;2.50;;;;;;;1.52;100.00;98223.98;88261;282;135327;-67
2023/11/25 02:26:44;;;;;;;3.70;2.90;;;;;;;1.51;100.00;98230.14;88506;281;22543;-68
2023/11/25 02:28:46;;;;;;;7.40;3.30;;;;;;;1.52;100.00;98237.91;88320;278;135867;-68
2023/11/25 02:30:51;;;;;;;5.70;3.20;;;;;;;1.52;100.00;98231.41;88398;282;22590;-68
2023/11/25 02:32:53;;;;;;;3.10;2.80;;;;;;;1.55;100.00;98234.37;88331;282;136366;-68
2023/11/25 02:34:55;;;;;;;5.80;2.50;;;;;;;1.61;100.00;98242.44;88392;278;25124;-69
2023/11/25 02:36:58;;;;;;;4.60;3.00;;;;;;;1.65;100.00;98247.58;88373;282;136264;-68
2023/11/25 02:39:00;;;;;;;5.30;2.80;;;;;;;1.62;100.00;98249.29;88472;275;22536;-65
2023/11/25 02:41:04;;;;;;;3.10;2.90;;;;;;;1.57;100.00;98252.23;88447;282;136062;-70
2023/11/25 02:43:08;;;;;;;6.90;3.20;;;;;;;1.53;100.00;98255.10;88639;284;22616;-69
2023/11/25 02:45:12;;;;;;;3.30;2.80;;;;;;;1.49;100.00;98255.54;88318;282;136059;-69
2023/11/25 02:47:14;;;;;;;4.90;3.10;;;;;;;1.43;100.00;98253.30;88347;283;25175;-70
2023/11/25 02:49:16;;;;;;;6.30;4.00;;;;;;;1.37;100.00;98260.33;88257;280;136437;-68
2023/11/25 02:51:19;;;;;;;5.00;2.70;;;;;;;1.38;100.00;98261.95;88423;276;22531;-68
2023/11/25 02:53:21;;;;;;;3.30;3.00;;;;;;;1.40;100.00;98262.63;88460;282;136664;-68
2023/11/25 02:55:23;;;;;;;8.70;2.90;;;;;;;1.42;100.00;98272.74;88460;275;22543;-69
2023/11/25 02:57:26;;;;;;;7.00;3.20;;;;;;;1.31;100.00;98270.34;88394;282;136393;-69
2023/11/25 02:59:28;;;;;;;4.90;3.40;;;;;;;1.34;100.00;98278.21;88408;280;22695;-70
2023/11/25 03:01:33;;;;;;;6.90;2.40;;;;;;;1.30;100.00;98275.83;88385;276;137041;-68
2023/11/25 03:03:43;;;;;;;5.20;3.50;;;;;;;1.28;100.00;98275.86;88577;279;22534;-68
2023/11/25 03:05:52;;;;;;;9.20;5.00;;;;;;;1.26;100.00;98279.50;88434;279;136024;-69
2023/11/25 03:07:56;;;;;;;7.70;4.80;;;;;;;1.25;100.00;98281.67;88547;279;24057;-69
2023/11/25 03:09:58;;;;;;;4.70;3.50;;;;;;;1.26;100.00;98281.44;88406;276;135802;-69
2023/11/25 03:12:01;;;;;;;5.00;3.20;;;;;;;1.30;100.00;98276.35;88592;282;24476;-69
2023/11/25 03:14:03;;;;;;;5.10;3.20;;;;;;;1.39;100.00;98282.69;88421;279;22553;-69
2023/11/25 03:16:06;;;;;;;7.30;2.80;;;;;;;1.45;100.00;98282.02;88280;275;136562;-68
2023/11/25 03:18:09;;;;;;;3.50;3.20;;;;;;;1.43;100.00;98281.49;88526;282;23778;-70
2023/11/25 03:20:11;;;;;;;3.50;2.90;;;;;;;1.36;100.00;98287.02;88276;282;136214;-68
2023/11/25 03:22:13;;;;;;;7.20;3.10;;;;;;;1.30;100.00;98291.44;88434;274;22628;-68
2023/11/25 03:24:16;;;;;;;4.60;3.70;;;;;;;1.23;100.00;98303.73;88369;275;136026;-69
2023/11/25 03:26:21;;;;;;;6.80;3.10;;;;;;;1.17;100.00;98308.31;88418;275;22548;-68
2023/11/25 03:28:24;;;;;;;5.70;3.10;;;;;;;1.18;100.00;98313.59;88298;281;136687;-71
2023/11/25 03:30:27;;;;;;;5.00;3.10;;;;;;;1.25;100.00;98314.94;88397;283;22556;-66
2023/11/25 03:32:29;;;;;;;5.20;3.10;;;;;;;1.30;100.00;98312.81;88399;275;137600;-66
2023/11/25 03:34:31;;;;;;;5.10;2.80;;;;;;;1.28;100.00;98304.98;88539;279;22606;-63
2023/11/25 03:36:34;;;;;;;4.90;3.70;;;;;;;1.22;100.00;98299.42;88448;281;135952;-65
2023/11/25 03:38:36;;;;;;;8.40;3.10;;;;;;;1.15;100.00;98295.78;88462;280;22859;-69
2023/11/25 03:40:38;;;;;;;7.30;3.10;;;;;;;1.11;100.00;98296.64;88284;279;135638;-65
2023/11/25 03:42:44;;;;;;;5.80;3.40;;;;;;;1.06;100.00;98294.94;88422;276;22527;-66
2023/11/25 03:44:47;;;;;;;7.30;4.20;;;;;;;1.01;100.00;98294.63;88453;283;137133;-71
2023/11/25 03:46:49;;;;;;;5.70;3.30;;;;;;;0.95;100.00;98293.92;88439;283;22536;-70
2023/11/25 03:48:52;;;;;;;5.60;3.50;;;;;;;0.91;100.00;98294.17;88405;282;136499;-69
2023/11/25 03:50:56;;;;;;;5.40;2.60;;;;;;;0.93;100.00;98300.92;88404;283;22629;-68
2023/11/25 03:52:59;;;;;;;2.60;2.40;;;;;;;0.96;100.00;98303.94;88245;280;136988;-70
2023/11/25 03:55:03;;;;;;;5.60;3.60;;;;;;;0.96;100.00;98315.27;88585;281;24169;-69
2023/11/25 03:57:06;;;;;;;8.70;4.40;;;;;;;0.92;100.00;98320.75;88455;282;136396;-68
2023/11/25 03:59:08;;;;;;;7.00;3.60;;;;;;;0.89;100.00;98323.31;88512;282;22631;-69
2023/11/25 04:01:10;;;;;;;6.80;4.10;;;;;;;0.86;100.00;98323.42;88407;281;135985;-70
2023/11/25 04:03:13;;;;;;;4.50;3.00;;;;;;;0.86;100.00;98329.07;88556;282;25080;-72
2023/11/25 04:05:18;;;;;;;4.90;3.40;;;;;;;0.87;100.00;98335.70;88245;282;137748;-72
2023/11/25 04:07:20;;;;;;;7.20;3.20;;;;;;;0.88;100.00;98345.90;88306;282;24018;-71
2023/11/25 04:09:23;;;;;;;7.70;3.10;;;;;;;0.89;100.00;98347.60;88249;283;135670;-68
2023/11/25 04:11:25;;;;;;;6.40;3.10;;;;;;;0.96;100.00;98349.36;88431;283;22537;-67
2023/11/25 04:13:27;;;;;;;6.60;4.50;;;;;;;1.07;100.00;98349.61;88437;283;136126;-72
2023/11/25 04:15:30;;;;;;;4.40;3.40;;;;;;;1.14;100.00;98348.23;88364;282;24153;-69
2023/11/25 04:17:32;;;;;;;6.90;4.30;;;;;;;1.18;100.00;98345.71;88368;278;136306;-72
2023/11/25 04:19:35;;;;;;;5.50;3.90;;;;;;;1.16;100.00;98350.38;88563;273;24020;-70
2023/11/25 04:21:45;;;;;;;6.10;3.90;;;;;;;1.11;100.00;98352.79;88272;275;136176;-73
2023/11/25 04:23:51;;;;;;;8.30;4.90;;;;;;;1.10;100.00;98360.85;88315;274;22527;-70
2023/11/25 04:25:53;;;;;;;7.60;5.40;;;;;;;1.09;100.00;98363.66;88199;274;135765;-70
2023/11/25 04:27:56;;;;;;;5.90;5.10;;;;;;;1.09;100.00;98364.86;88267;275;25262;-71
2023/11/25 04:29:58;;;;;;;6.00;4.40;;;;;;;1.11;100.00;98369.88;88705;279;136385;-71
2023/11/25 04:32:01;;;;;;;8.50;4.40;;;;;;;1.12;100.00;98369.58;88342;274;23571;-72
2023/11/25 04:34:05;;;;;;;6.00;4.70;;;;;;;1.17;100.00;98374.94;88571;273;22534;-69
2023/11/25 04:36:09;;;;;;;10.00;4.90;;;;;;;1.24;100.00;98368.98;88319;274;136926;-72
2023/11/25 04:38:11;;;;;;;8.10;5.10;;;;;;;1.20;100.00;98359.10;88802;282;22716;-71
2023/11/25 04:40:14;;;;;;;5.40;4.30;;;;;;;1.33;100.00;98368.39;88243;278;136664;-72
2023/11/25 04:42:16;;;;;;;7.00;4.50;;;;;;;1.37;100.00;98367.96;88357;282;24039;-72
2023/11/25 04:44:18;;;;;;;9.00;5.20;;;;;;;1.36;100.00;98357.96;88301;276;136188;-69
2023/11/25 04:46:21;;;;;;;6.80;5.30;;;;;;;1.26;100.00;98343.15;88325;282;22533;-70
2023/11/25 04:48:24;;;;;;;10.50;5.90;;;;;;;1.32;100.00;98365.58;88357;279;136156;-73
2023/11/25 04:50:26;;;;;;;7.20;5.70;;;;;;;1.30;100.00;98374.00;88419;274;25083;-70
2023/11/25 04:52:29;;;;;;;10.70;6.60;;;;;;;1.30;100.00;98373.45;88308;279;135709;-70
2023/11/25 04:54:33;;;;;;;9.00;5.20;;;;;;;1.29;100.00;98372.43;88420;282;24014;-72
2023/11/25 04:56:35;;;;;;;11.50;5.50;;;;;;;1.32;100.00;98368.89;88342;282;137650;-72
2023/11/25 04:58:39;;;;;;;8.20;5.30;;;;;;;1.38;100.00;98362.77;88403;279;22534;-70
2023/11/25 05:00:42;;;;;;;8.70;5.10;;;;;;;1.44;100.00;98367.17;88443;282;137656;-70
2023/11/25 05:02:44;;;;;;;10.70;7.10;;;;;;;1.45;100.00;98372.16;88647;275;22555;-71
2023/11/25 05:04:46;;;;;;;14.10;6.80;;;;;;;1.38;100.00;98375.40;88246;279;136031;-74
2023/11/25 05:06:48;;;;;;;8.40;5.90;;;;;;;1.27;100.00;98381.00;88443;275;25140;-71
2023/11/25 05:08:51;;;;;;;9.30;7.50;;;;;;;1.16;100.00;98386.35;88286;274;136565;-70
2023/11/25 05:10:55;;;;;;;9.60;6.30;;;;;;;1.09;100.00;98393.98;88414;274;22635;-71
2023/11/25 05:12:58;;;;;;;9.40;6.80;;;;;;;1.03;100.00;98399.91;88702;280;136408;-72
2023/11/25 05:15:00;;;;;;;11.50;7.10;;;;;;;0.96;100.00;98403.23;88760;273;25121;-71
2023/11/25 05:17:02;;;;;;;11.10;8.80;;;;;;;0.90;100.00;98402.80;88351;275;136412;-71
2023/11/25 05:19:05;;;;;;;16.70;10.10;;;;;;;0.83;100.00;98394.08;89105;275;24093;-70
2023/11/25 05:21:09;;;;;;;14.90;10.40;;;;;;;0.95;100.00;98415.11;88503;275;136518;-71
2023/11/25 05:23:13;;;;;;;22.70;12.00;;;;;;;0.98;100.00;98421.56;88521;280;22533;-71
2023/11/25 05:25:15;;;;;;;18.10;11.70;;;;;;;0.99;100.00;98430.69;88242;279;136476;-69
2023/11/25 05:27:18;;;;;;;19.70;14.10;;;;;;;0.95;100.00;98434.54;88486;280;25402;-72
2023/11/25 05:29:21;;;;;;;23.80;14.10;;;;;;;0.91;100.00;98439.61;88600;282;136411;-70
2023/11/25 05:31:23;;;;;;;23.90;14.90;;;;;;;0.86;100.00;98427.49;89433;274;22534;-72
2023/11/25 05:33:26;;;;;;;22.20;15.20;;;;;;;0.80;100.00;98421.46;89596;273;136224;-69
2023/11/25 05:35:28;;;;;;;22.10;15.20;;;;;;;0.75;100.00;98419.39;89700;273;24140;-69
2023/11/25 05:37:30;;;;;;;22.60;14.70;;;;;;;0.71;100.00;98422.73;89541;280;136178;-70
2023/11/25 05:39:33;;;;;;;22.80;14.30;;;;;;;0.71;100.00;98423.55;89228;278;22539;-69
2023/11/25 05:41:35;;;;;;;20.60;15.00;;;;;;;0.76;100.00;98429.41;88437;281;136922;-71
2023/11/25 05:43:39;;;;;;;28.80;13.60;;;;;;;0.81;100.00;98439.05;88632;281;22540;-70
2023/11/25 05:45:43;;;;;;;21.20;13.80;;;;;;;0.83;100.00;98443.91;88761;280;137781;-71
2023/11/25 05:47:47;;;;;;;25.00;15.00;;;;;;;0.81;100.00;98441.81;88717;280;25396;-71
2023/11/25 05:49:49;;;;;;;22.30;13.50;;;;;;;0.70;100.00;98427.38;88587;280;136280;-71
2023/11/25 05:51:51;;;;;;;21.00;14.60;;;;;;;0.69;100.00;98435.20;88488;282;22530;-64
2023/11/25 05:53:54;;;;;;;25.30;15.20;;;;;;;0.64;100.00;98437.67;88371;280;136351;-73
2023/11/25 05:55:56;;;;;;;24.50;15.60;;;;;;;0.57;100.00;98433.21;88636;273;22635;-73
2023/11/25 05:57:59;;;;;;;28.70;14.90;;;;;;;0.60;100.00;98438.73;88504;274;135996;-74
2023/11/25 06:00:01;;;;;;;24.10;13.30;;;;;;;0.64;100.00;98421.87;88553;274;25213;-72
2023/11/25 06:02:13;;;;;;;21.20;12.90;;;;;;;0.74;100.00;98416.42;88535;274;22618;-71
2023/11/25 06:04:15;;;;;;;18.60;12.20;;;;;;;0.83;100.00;98418.16;88477;279;136878;-71
2023/11/25 06:06:22;;;;;;;20.30;12.20;;;;;;;0.91;100.00;98421.09;88783;273;22921;-73
2023/11/25 06:08:25;;;;;;;15.50;11.80;;;;;;;0.91;100.00;98430.35;88386;274;669223;-72
2023/11/25 06:10:27;;;;;;;18.50;11.90;;;;;;;0.90;100.00;98437.98;88673;274;22553;-72
2023/11/25 06:12:31;;;;;;;16.60;12.30;;;;;;;0.90;100.00;98439.83;88442;278;136406;-75
2023/11/25 06:14:33;;;;;;;18.50;11.40;;;;;;;0.81;100.00;98429.26;88444;274;22529;-73
2023/11/25 06:16:36;;;;;;;18.50;11.30;;;;;;;0.91;100.00;98451.05;88358;282;136765;-78
2023/11/25 06:18:39;;;;;;;18.00;11.90;;;;;;;0.92;100.00;98454.59;88726;281;24095;-74
2023/11/25 06:20:41;;;;;;;19.20;12.80;;;;;;;0.96;100.00;98455.84;88420;273;136769;-72
2023/11/25 06:22:43;;;;;;;22.60;12.60;;;;;;;0.99;100.00;98444.95;88451;274;22536;-71
2023/11/25 06:24:46;;;;;;;21.90;13.70;;;;;;;0.92;100.00;98417.55;88274;275;137027;-72
2023/11/25 06:26:49;;;;;;;21.30;12.90;;;;;;;0.99;100.00;98415.66;88362;275;22546;-73
2023/11/25 06:28:52;;;;;;;27.70;16.70;;;;;;;1.08;100.00;98415.58;88268;273;136611;-74
2023/11/25 06:30:54;;;;;;;21.80;14.70;;;;;;;1.11;100.00;98405.55;88243;278;23888;-73
2023/11/25 06:32:56;;;;;;;24.00;14.80;;;;;;;1.14;100.00;98401.70;88197;279;135811;-75
2023/11/25 06:34:58;;;;;;;22.00;15.30;;;;;;;1.18;100.00;98401.64;88426;273;22510;-74
2023/11/25 06:37:00;;;;;;;23.40;14.20;;;;;;;1.21;100.00;98402.66;88396;277;136276;-72
2023/11/25 06:39:04;;;;;;;19.30;12.80;;;;;;;1.24;100.00;98411.77;88566;275;25773;-75
2023/11/25 06:41:11;;;;;;;25.60;13.80;;;;;;;1.32;100.00;98424.70;88353;278;136804;-73
2023/11/25 06:43:15;;;;;;;21.50;13.70;;;;;;;1.42;100.00;98432.30;88551;281;24302;-73
2023/11/25 06:45:17;;;;;;;20.80;12.50;;;;;;;1.46;100.00;98438.34;88295;274;138221;-73
2023/11/25 06:47:19;;;;;;;21.10;13.00;;;;;;;1.46;100.00;98447.30;88380;274;25093;-72
2023/11/25 06:49:23;;;;;;;19.60;13.20;;;;;;;1.43;100.00;98442.70;88245;274;137491;-72
2023/11/25 06:51:25;;;;;;;20.20;12.50;;;;;;;1.40;100.00;98436.83;88531;273;25118;-72
2023/11/25 06:53:29;;;;;;;21.10;13.70;;;;;;;1.36;100.00;98437.13;88240;275;136253;-74
2023/11/25 06:55:32;;;;;;;19.90;13.50;;;;;;;1.36;100.00;98439.79;88825;275;25083;-71
2023/11/25 06:57:39;;;;;;;23.60;14.10;;;;;;;1.34;100.00;98439.20;88193;277;136428;-73
2023/11/25 06:59:45;;;;;;;18.50;11.90;;;;;;;1.37;100.00;98442.51;88389;282;22653;-73
2023/11/25 07:01:47;;;;;;;21.20;12.70;;;;;;;1.43;100.00;98440.80;88550;274;136907;-71
2023/11/25 07:03:50;;;;;;;17.80;12.40;;;;;;;1.50;100.00;98431.41;88309;282;24019;-71
2023/11/25 07:05:52;;;;;;;18.60;14.50;;;;;;;1.49;100.00;98437.70;88733;274;137626;-76
2023/11/25 07:07:54;;;;;;;19.10;14.00;;;;;;;1.47;100.00;98435.80;89092;278;22551;-74
2023/11/25 07:09:56;;;;;;;20.60;16.30;;;;;;;1.48;100.00;98441.96;89158;282;135990;-79
2023/11/25 07:11:58;;;;;;;20.20;15.20;;;;;;;1.49;100.00;98448.01;88994;283;22659;-70
2023/11/25 07:14:00;;;;;;;22.80;16.30;;;;;;;1.50;100.00;98450.16;88937;278;135853;-72
2023/11/25 07:16:06;;;;;;;19.90;13.00;;;;;;;1.51;100.00;98458.83;89053;279;24052;-72
2023/11/25 07:18:08;;;;;;;17.30;11.30;;;;;;;1.54;100.00;98458.77;91242;283;23073;-71
2023/11/25 07:20:11;;;;;;;15.80;11.20;;;;;;;1.59;100.00;98457.63;89899;275;136936;-69
2023/11/25 07:22:14;;;;;;;14.40;9.70;;;;;;;1.56;100.00;98448.73;89119;279;25217;-70
2023/11/25 07:24:16;;;;;;;13.10;9.40;;;;;;;1.67;100.00;98459.38;88980;281;136637;-69
2023/11/25 07:26:18;;;;;;;17.60;10.80;;;;;;;1.65;100.00;98462.21;88367;280;22615;-70
2023/11/25 07:28:22;;;;;;;12.70;9.80;;;;;;;1.65;100.00;98465.73;88885;280;136174;-69
2023/11/25 07:30:23;;;;;;;13.60;9.80;;;;;;;1.68;100.00;98468.84;88719;273;22547;-71
2023/11/25 07:32:25;;;;;;;17.70;11.00;;;;;;;1.71;100.00;98472.97;88800;279;135838;-73
2023/11/25 07:34:29;;;;;;;15.60;9.90;;;;;;;1.72;100.00;98474.61;89104;273;22599;-72
2023/11/25 07:36:32;;;;;;;17.80;9.50;;;;;;;1.73;100.00;98483.75;88834;280;137007;-73
2023/11/25 07:38:34;;;;;;;13.30;9.30;;;;;;;1.78;100.00;98484.80;88700;281;25087;-75
2023/11/25 07:40:36;;;;;;;10.00;8.80;;;;;;;1.87;100.00;98484.42;88620;281;137656;-72
2023/11/25 07:42:38;;;;;;;12.80;9.30;;;;;;;1.96;100.00;98486.89;88796;281;24195;-72
2023/11/25 07:44:42;;;;;;;15.70;9.10;;;;;;;2.04;100.00;98493.83;88715;281;135746;-72
2023/11/25 07:46:44;;;;;;;12.80;9.40;;;;;;;2.06;100.00;98500.90;88951;274;23214;-73
2023/11/25 07:48:46;;;;;;;13.70;9.30;;;;;;;2.09;100.00;98510.20;88751;276;135824;-72
2023/11/25 07:50:48;;;;;;;11.50;9.10;;;;;;;2.15;100.00;98523.55;88736;281;22537;-72
2023/11/25 07:52:53;;;;;;;16.40;9.50;;;;;;;2.18;100.00;98536.34;88668;274;137658;-74
2023/11/25 07:54:55;;;;;;;12.10;8.50;;;;;;;2.21;100.00;98547.26;88733;275;25198;-71
2023/11/25 07:56:57;;;;;;;13.60;8.80;;;;;;;2.27;100.00;98554.07;88584;273;136198;-71
2023/11/25 07:58:59;;;;;;;12.90;8.70;;;;;;;2.40;100.00;98549.29;89046;281;22539;-71
2023/11/25 08:01:04;;;;;;;15.60;7.90;;;;;;;2.52;100.00;98542.38;88738;282;136241;-73
2023/11/25 08:03:06;;;;;;;13.30;9.30;;;;;;;2.59;100.00;98536.45;88806;278;22479;-69
2023/11/25 08:05:10;;;;;;;12.90;9.30;;;;;;;2.63;100.00;98530.56;88873;278;135688;-71
2023/11/25 08:07:14;;;;;;;14.50;9.20;;;;;;;2.68;100.00;98527.16;88776;282;22523;-71
2023/11/25 08:09:18;;;;;;;13.70;8.60;;;;;;;2.70;100.00;98527.56;88997;281;136002;-71
2023/11/25 08:11:29;;;;;;;14.40;9.60;;;;;;;2.73;100.00;98531.46;88874;278;22539;-74
2023/11/25 08:13:31;;;;;;;17.50;9.80;;;;;;;2.76;100.00;98531.35;88329;281;137207;-70
2023/11/25 08:15:33;;;;;;;12.60;9.10;;;;;;;2.75;100.00;98533.04;88798;280;23345;-72
2023/11/25 08:17:36;;;;;;;12.00;8.30;;;;;;;2.77;100.00;98530.75;88543;275;137288;-72
2023/11/25 08:19:38;;;;;;;12.10;8.30;;;;;;;2.85;100.00;98527.65;88775;275;22532;-73
2023/11/25 08:21:40;;;;;;;11.80;8.30;;;;;;;2.93;100.00;98525.98;88651;274;137449;-71
2023/11/25 08:23:44;;;;;;;14.40;10.30;;;;;;;2.97;100.00;98527.61;88718;275;22536;-67
2023/11/25 08:25:46;;;;;;;13.20;9.10;;;;;;;2.98;100.00;98526.25;88819;274;136321;-71
2023/11/25 08:27:49;;;;;;;13.10;10.20;;;;;;;3.00;100.00;98530.40;88836;275;25306;-71
2023/11/25 08:29:51;;;;;;;11.80;8.60;;;;;;;2.97;100.00;98508.66;88679;278;137077;-71
2023/11/25 08:31:53;;;;;;;15.40;10.20;;;;;;;3.11;100.00;98516.06;88814;274;22527;-69
2023/11/25 08:33:55;;;;;;;13.80;10.30;;;;;;;3.15;100.00;98514.38;88359;273;136347;-69
2023/11/25 08:35:58;;;;;;;11.40;9.00;;;;;;;3.17;100.00;98517.64;88504;273;22527;-70
2023/11/25 08:38:03;;;;;;;8.80;7.30;;;;;;;3.16;100.00;98514.75;88566;274;24072;-71
2023/11/25 08:40:09;;;;;;;11.10;9.30;;;;;;;3.15;100.00;98510.70;88654;277;136021;-73
2023/11/25 08:42:14;;;;;;;11.00;8.80;;;;;;;3.12;100.00;98511.98;88901;280;24055;-72
2023/11/25 08:44:16;;;;;;;12.70;7.70;;;;;;;3.11;100.00;98510.64;88735;281;136989;-68
2023/11/25 08:46:19;;;;;;;9.30;7.10;;;;;;;3.15;100.00;98511.77;88794;274;22882;-74
2023/11/25 08:48:23;;;;;;;9.40;7.00;;;;;;;3.21;100.00;98516.50;88642;281;136193;-72
2023/11/25 08:50:25;;;;;;;10.90;7.10;;;;;;;3.31;100.00;98521.36;88842;275;25286;-73
2023/11/25 08:52:27;;;;;;;8.90;7.20;;;;;;;3.41;100.00;98523.33;88896;274;136368;-71
2023/11/25 08:54:36;;;;;;;12.50;7.00;;;;;;;3.45;100.00;98521.14;88839;281;22898;-72
2023/11/25 08:56:48;;;;;;;9.50;7.20;;;;;;;3.44;100.00;98512.95;88769;277;135912;-70
2023/11/25 08:58:51;;;;;;;14.40;8.70;;;;;;;3.43;100.00;98517.88;88813;280;25122;-70
2023/11/25 09:01:07;;;;;;;;;;;;;;;3.44;100.00;98521.21;88619;273;137615;-73
2023/11/25 09:03:10;;;;;;;13.70;10.50;;;;;;;3.44;100.00;98519.06;88885;274;24075;-72
2023/11/25 09:05:14;;;;;;;14.50;9.30;;;;;;;3.42;100.00;98520.86;88183;274;135986;-68
2023/11/25 09:07:17;;;;;;;;;;;;;;;3.32;100.00;98520.60;88938;275;25325;-72
2023/11/25 09:09:20;;;;;;;17.10;8.90;;;;;;;3.17;100.00;98518.52;88825;279;122772;-73
2023/11/25 09:11:25;;;;;;;17.00;9.40;;;;;;;3.07;100.00;98519.98;88418;273;22534;-73
2023/11/25 09:13:27;;;;;;;;;;;;;;;2.97;100.00;98511.33;88683;278;138275;-68
2023/11/25 09:15:32;;;;;;;14.70;9.80;;;;;;;2.91;100.00;98499.80;89130;274;22568;-70
2023/11/25 09:17:42;;;;;;;10.60;8.60;;;;;;;2.92;100.00;98496.61;88683;275;137499;-72
2023/11/25 09:19:44;;;;;;;17.00;9.60;;;;;;;3.01;100.00;98500.84;88709;282;22551;-67
2023/11/25 09:21:47;;;;;;;12.30;9.80;;;;;;;3.08;100.00;98501.20;88776;273;136319;-71
2023/11/25 09:23:49;;;;;;;11.60;10.20;;;;;;;3.08;100.00;98508.17;89143;277;22557;-70
2023/11/25 09:25:51;;;;;;;13.60;9.90;;;;;;;3.08;100.00;98517.26;88866;275;137128;-71
2023/11/25 09:27:53;;;;;;;14.60;10.70;;;;;;;3.11;100.00;98515.95;89230;281;22534;-71
2023/11/25 09:29:55;;;;;;;14.90;9.70;;;;;;;3.14;100.00;98517.67;89208;281;135917;-69
2023/11/25 09:31:58;;;;;;;14.20;10.90;;;;;;;3.14;100.00;98523.96;88907;274;24034;-69
2023/11/25 09:34:02;;;;;;;14.20;9.90;;;;;;;3.12;100.00;98538.44;89049;275;136977;-72
2023/11/25 09:36:06;;;;;;;14.10;10.20;;;;;;;3.11;100.00;98542.76;89552;275;138531;-69
2023/11/25 09:38:08;;;;;;;14.60;10.70;;;;;;;3.12;100.00;98538.11;88872;275;24101;-72